Time;durP1;ratioP1;P1;durP2;ratioP2;P2;SDS_P1;SDS_P2;PMS_P1;PMS_P2;Temp;Humidity;BMP_temperature;BMP_pressure;BME280_temperature;BME280_humidity;BME280_pressure;Samples;Min_cycle;Max_cycle;Signal;HPM_P1;HPM_P2
2023/05/16 00:03:01;;;;;;;3.12;1.65;;;;;;;15.17;62.93;99318.66;7659312;32;37934;-86
2023/05/16 00:07:18;;;;;;;2.17;1.60;;;;;;;15.36;62.58;99318.44;7658676;32;37007;-86
2023/05/16 00:11:34;;;;;;;1.70;1.60;;;;;;;15.12;63.75;99310.56;7658633;32;40150;-86
2023/05/16 00:15:52;;;;;;;2.15;1.83;;;;;;;15.08;63.91;99303.28;7658675;32;41271;-85
2023/05/16 00:20:09;;;;;;;3.53;1.95;;;;;;;15.07;63.98;99307.13;7658454;32;37881;-85
2023/05/16 00:24:26;;;;;;;4.95;1.60;;;;;;;15.14;63.63;99286.38;7658495;32;37901;-86
2023/05/16 00:28:43;;;;;;;2.60;1.67;;;;;;;15.35;62.91;99291.28;7658164;32;38460;-86
2023/05/16 00:32:59;;;;;;;4.07;1.65;;;;;;;15.24;63.35;99279.78;7670271;32;40647;-85
2023/05/16 00:37:15;;;;;;;2.78;1.60;;;;;;;15.11;63.97;99278.75;7673112;32;37917;-86
2023/05/16 00:41:33;;;;;;;1.58;1.48;;;;;;;15.15;63.69;99266.00;7684766;32;37132;-86
2023/05/16 00:45:49;;;;;;;2.25;1.60;;;;;;;15.00;64.34;99280.97;7684324;32;39759;-86
2023/05/16 00:50:06;;;;;;;4.65;2.00;;;;;;;15.03;64.31;99283.06;7684557;32;40051;-86
2023/05/16 00:54:25;;;;;;;2.22;1.80;;;;;;;15.02;64.64;99283.38;7684489;32;37946;-85
2023/05/16 00:58:42;;;;;;;5.32;1.87;;;;;;;14.99;64.74;99279.31;7671367;32;37093;-86
2023/05/16 01:02:59;;;;;;;6.15;1.87;;;;;;;15.00;64.76;99280.97;7668749;32;39347;-86
2023/05/16 01:07:16;;;;;;;4.32;2.20;;;;;;;15.11;64.49;99297.13;7657990;32;40866;-86
2023/05/16 01:11:55;;;;;;;3.58;1.80;;;;;;;15.14;64.50;99302.00;7657747;32;38758;-86
2023/05/16 01:16:34;;;;;;;3.47;1.90;;;;;;;15.02;65.01;99300.66;7645918;32;37192;-86
2023/05/16 01:21:02;;;;;;;2.47;1.70;;;;;;;15.08;64.79;99293.09;7621448;32;39184;-85
2023/05/16 01:25:44;;;;;;;6.87;2.30;;;;;;;15.06;64.95;99283.56;7683526;32;40125;-85
2023/05/16 01:30:00;;;;;;;4.15;2.10;;;;;;;15.05;65.06;99281.94;7683818;32;39522;-86
2023/05/16 01:34:17;;;;;;;2.55;1.70;;;;;;;15.11;64.89;99275.19;7683936;32;36860;-86
2023/05/16 01:38:40;;;;;;;1.92;1.50;;;;;;;15.13;64.62;99257.28;7670322;32;39289;-86
2023/05/16 01:42:59;;;;;;;5.05;1.77;;;;;;;15.34;63.73;99252.03;7670645;32;40868;-86
2023/05/16 01:47:18;;;;;;;3.42;1.50;;;;;;;14.99;64.63;99267.53;7683416;32;37863;-86
2023/05/16 01:51:38;;;;;;;1.33;1.23;;;;;;;15.00;64.51;99264.50;7666357;32;37051;-86
2023/05/16 01:56:00;;;;;;;2.62;1.42;;;;;;;15.21;63.73;99258.44;7664086;32;40162;-86
2023/05/16 02:00:16;;;;;;;1.95;1.48;;;;;;;15.18;63.85;99243.41;7673465;32;40054;-86
2023/05/16 02:04:33;;;;;;;2.08;1.50;;;;;;;15.11;63.81;99253.22;7672862;32;38877;-86
2023/05/16 02:08:49;;;;;;;6.07;1.48;;;;;;;15.15;63.49;99263.25;7686393;32;37633;-85
2023/05/16 02:13:06;;;;;;;2.12;1.45;;;;;;;15.25;62.71;99269.63;7686464;32;40145;-86
2023/05/16 02:17:22;;;;;;;2.28;1.80;;;;;;;15.20;63.11;99276.06;7686377;32;40841;-86
2023/05/16 02:21:38;;;;;;;5.45;1.77;;;;;;;15.25;63.48;99264.13;7682009;32;37830;-86
2023/05/16 02:25:55;;;;;;;2.70;1.52;;;;;;;15.34;63.65;99238.31;7670527;32;37138;-86
2023/05/16 02:30:11;;;;;;;5.68;1.58;;;;;;;15.28;63.71;99230.53;7685504;32;38968;-86
2023/05/16 02:34:28;;;;;;;1.95;1.60;;;;;;;15.05;64.36;99240.75;7685965;32;40889;-86
2023/05/16 02:38:44;;;;;;;7.97;1.87;;;;;;;15.27;63.69;99250.91;7662867;32;38083;-85
2023/05/16 02:43:00;;;;;;;5.75;1.42;;;;;;;15.23;63.54;99234.25;7667902;32;38061;-84
2023/05/16 02:47:16;;;;;;;1.85;1.58;;;;;;;15.07;64.27;99231.06;7659581;32;40055;-86
2023/05/16 02:51:33;;;;;;;1.80;1.60;;;;;;;15.12;64.05;99221.91;7659577;32;41398;-85
2023/05/16 02:55:49;;;;;;;1.52;1.42;;;;;;;15.02;64.61;99201.84;7659402;32;37753;-85
2023/05/16 03:00:06;;;;;;;1.50;1.40;;;;;;;15.05;64.52;99210.56;7671813;32;36755;-86
2023/05/16 03:04:22;;;;;;;1.67;1.58;;;;;;;14.90;64.85;99225.50;7659488;32;40037;-86
2023/05/16 03:08:38;;;;;;;2.22;1.73;;;;;;;14.58;65.60;99219.97;7658971;32;40781;-85
2023/05/16 03:12:55;;;;;;;1.80;1.70;;;;;;;14.56;65.92;99233.19;7659283;32;38751;-85
2023/05/16 03:17:11;;;;;;;3.75;1.77;;;;;;;14.83;64.68;99231.44;7659766;32;36782;-85
2023/05/16 03:21:27;;;;;;;3.65;1.62;;;;;;;14.75;65.26;99234.94;7659042;32;40063;-86
2023/05/16 03:25:45;;;;;;;4.78;1.70;;;;;;;14.98;64.76;99250.25;7659155;32;40085;-85
2023/05/16 03:30:01;;;;;;;4.18;1.65;;;;;;;14.83;65.21;99229.50;7661632;32;37800;-85
2023/05/16 03:34:17;;;;;;;5.87;1.90;;;;;;;14.70;65.63;99227.66;7685472;32;37021;-85
2023/05/16 03:38:34;;;;;;;3.53;1.92;;;;;;;14.94;64.95;99238.28;7685144;32;40076;-85
2023/05/16 03:42:50;;;;;;;1.85;1.70;;;;;;;14.79;65.38;99235.94;7685292;32;40767;-86
2023/05/16 03:47:06;;;;;;;3.30;1.40;;;;;;;14.96;65.04;99236.03;7684836;32;38072;-86
2023/05/16 03:51:23;;;;;;;2.58;1.60;;;;;;;14.87;65.10;99237.09;7685021;32;38021;-86
2023/05/16 03:55:39;;;;;;;3.65;1.40;;;;;;;15.00;64.61;99253.50;7684734;32;38975;-85
2023/05/16 03:59:55;;;;;;;4.85;1.30;;;;;;;14.87;65.06;99248.06;7682571;32;39929;-86
2023/05/16 04:04:13;;;;;;;1.40;1.30;;;;;;;14.86;65.26;99230.81;7659337;32;38762;-86
2023/05/16 04:08:30;;;;;;;2.05;1.30;;;;;;;14.95;65.24;99225.38;7658479;32;38081;-85
2023/05/16 04:12:46;;;;;;;2.58;1.50;;;;;;;15.02;65.32;99240.28;7658587;32;39521;-86
2023/05/16 04:17:02;;;;;;;2.80;1.42;;;;;;;15.13;65.04;99215.31;7658466;32;39860;-86
2023/05/16 04:21:19;;;;;;;1.70;1.40;;;;;;;15.16;65.09;99225.63;7659439;32;38000;-85
2023/05/16 04:25:35;;;;;;;2.03;1.55;;;;;;;15.28;64.65;99234.09;7667205;32;36781;-85
2023/05/16 04:29:51;;;;;;;1.77;1.40;;;;;;;15.39;64.07;99242.88;7658324;32;40087;-85
2023/05/16 04:34:08;;;;;;;1.62;1.52;;;;;;;15.30;64.34;99259.31;7658409;32;40000;-86
2023/05/16 04:38:25;;;;;;;5.78;2.05;;;;;;;15.12;65.53;99247.41;7658253;32;38006;-85
2023/05/16 04:42:41;;;;;;;2.83;1.73;;;;;;;15.13;64.58;99242.75;7658367;32;37572;-85
2023/05/16 04:46:58;;;;;;;1.52;1.42;;;;;;;15.14;64.86;99247.94;7658151;32;39436;-85
2023/05/16 04:51:14;;;;;;;3.45;1.50;;;;;;;15.13;65.36;99253.75;7659179;32;39907;-86
2023/05/16 04:55:31;;;;;;;1.62;1.40;;;;;;;15.22;65.38;99260.06;7668953;32;38743;-86
2023/05/16 04:59:47;;;;;;;5.43;1.67;;;;;;;15.36;65.08;99269.00;7644874;32;36738;-86
2023/05/16 05:04:03;;;;;;;2.10;1.60;;;;;;;15.18;65.68;99264.59;7658063;32;39409;-86
2023/05/16 05:08:21;;;;;;;2.00;1.37;;;;;;;15.47;64.31;99255.81;7679007;32;40085;-86
2023/05/16 05:12:37;;;;;;;5.68;1.60;;;;;;;15.48;64.17;99262.13;7673735;32;37642;-86
2023/05/16 05:16:54;;;;;;;4.55;1.65;;;;;;;15.31;65.16;99255.41;7660927;32;37136;-85
2023/05/16 05:21:10;;;;;;;4.65;1.58;;;;;;;15.48;64.75;99240.16;7657594;32;40077;-85
2023/05/16 05:25:26;;;;;;;1.37;1.20;;;;;;;15.52;64.62;99228.22;7659631;32;40073;-85
2023/05/16 05:29:43;;;;;;;3.03;1.50;;;;;;;15.68;64.10;99238.75;7677040;32;38698;-86
2023/05/16 05:34:00;;;;;;;1.48;1.37;;;;;;;15.53;64.57;99248.25;7683814;32;37386;-86
2023/05/16 05:38:16;;;;;;;2.15;1.40;;;;;;;15.69;63.23;99251.34;7673296;32;39295;-85
2023/05/16 05:42:32;;;;;;;3.25;1.37;;;;;;;15.57;63.55;99258.28;7683825;32;39996;-82
2023/05/16 05:46:49;;;;;;;2.40;1.75;;;;;;;15.87;63.48;99260.50;7683618;32;39159;-77
2023/05/16 05:51:05;;;;;;;2.00;1.60;;;;;;;15.69;64.11;99296.12;7652412;32;36741;-77
2023/05/16 05:55:21;;;;;;;5.80;2.15;;;;;;;15.73;64.28;99302.63;7643827;32;40089;-85
2023/05/16 05:59:38;;;;;;;3.10;1.90;;;;;;;15.65;64.13;99299.84;7675982;32;40041;-86
2023/05/16 06:03:54;;;;;;;5.82;2.20;;;;;;;15.79;63.82;99299.75;7682618;32;37931;-86
2023/05/16 06:08:10;;;;;;;4.68;1.87;;;;;;;15.29;65.54;99306.31;7683081;32;37758;-84
2023/05/16 06:12:27;;;;;;;2.15;1.80;;;;;;;15.73;64.80;99302.63;7683863;32;39460;-85
2023/05/16 06:16:43;;;;;;;3.30;1.60;;;;;;;15.81;64.41;99289.25;7683359;32;40617;-85
2023/05/16 06:20:59;;;;;;;3.53;1.80;;;;;;;16.10;63.81;99277.69;7682866;32;37835;-85
2023/05/16 06:25:16;;;;;;;1.80;1.60;;;;;;;16.03;63.99;99272.66;7682922;32;37177;-85
2023/05/16 06:29:32;;;;;;;5.85;1.75;;;;;;;15.99;64.31;99268.94;7679295;32;39290;-83
2023/05/16 06:33:48;;;;;;;2.55;1.45;;;;;;;16.03;64.33;99261.66;7664590;32;40897;-82
2023/05/16 06:38:05;;;;;;;2.58;1.85;;;;;;;16.20;63.88;99279.31;7676082;32;38784;-82
2023/05/16 06:42:21;;;;;;;4.43;2.15;;;;;;;16.07;64.23;99256.31;7658611;32;37682;-82
2023/05/16 06:46:37;;;;;;;1.77;1.60;;;;;;;16.06;64.11;99250.03;7668232;32;40139;-81
2023/05/16 06:50:56;;;;;;;1.73;1.60;;;;;;;16.07;64.16;99248.88;7664967;32;40865;-82
2023/05/16 06:55:14;;;;;;;3.35;1.98;;;;;;;15.94;65.59;99244.34;7671501;32;38712;-84
2023/05/16 06:59:31;;;;;;;3.03;2.00;;;;;;;15.95;66.20;99243.19;7685934;32;38115;-85
2023/05/16 07:03:47;;;;;;;3.42;2.20;;;;;;;16.27;65.13;99249.41;7673040;32;39556;-84
2023/05/16 07:08:04;;;;;;;1.77;1.67;;;;;;;16.23;65.06;99245.66;7661695;32;39989;-82
2023/05/16 07:12:22;;;;;;;2.28;2.08;;;;;;;16.41;64.89;99233.53;7668986;32;38534;-85
2023/05/16 07:16:39;;;;;;;3.33;2.28;;;;;;;16.38;64.75;99228.66;7665476;32;36744;-83
2023/05/16 07:20:55;;;;;;;3.33;2.33;;;;;;;16.27;65.43;99221.88;7659325;32;40130;-83
2023/05/16 07:25:13;;;;;;;3.15;2.65;;;;;;;16.18;65.70;99221.88;7659393;32;40098;-84
2023/05/16 07:29:29;;;;;;;3.20;2.37;;;;;;;16.32;65.33;99229.97;7659033;32;37874;-83
2023/05/16 07:33:46;;;;;;;4.55;2.28;;;;;;;16.20;66.21;99227.88;7659296;32;37206;-84
2023/05/16 07:38:02;;;;;;;5.05;2.92;;;;;;;16.31;65.12;99240.16;7659098;32;40085;-83
2023/05/16 07:42:18;;;;;;;8.98;2.67;;;;;;;16.02;66.52;99239.97;7659000;32;40934;-84
2023/05/16 07:46:35;;;;;;;4.12;2.58;;;;;;;16.41;64.72;99243.72;7658849;32;38671;-84
2023/05/16 07:50:52;;;;;;;4.87;3.25;;;;;;;16.37;64.87;99249.06;7659023;32;37872;-84
2023/05/16 07:55:10;;;;;;;8.05;3.40;;;;;;;16.30;65.46;99257.00;7658071;32;40097;-84
2023/05/16 07:59:27;;;;;;;8.85;2.87;;;;;;;16.49;64.54;99254.72;7658984;32;40061;-83
2023/05/16 08:03:43;;;;;;;5.15;3.00;;;;;;;16.52;63.92;99253.25;7658747;32;38516;-85
2023/05/16 08:08:00;;;;;;;5.00;3.30;;;;;;;16.52;64.92;99247.75;7655445;32;366901;-84
2023/05/16 08:12:16;;;;;;;6.22;3.58;;;;;;;16.62;64.35;99254.87;7670493;32;39256;-82
2023/05/16 08:16:32;;;;;;;3.90;2.90;;;;;;;16.49;63.98;99257.47;7679579;32;39910;-83
2023/05/16 08:20:50;;;;;;;6.37;3.17;;;;;;;16.44;65.21;99263.16;7658609;32;37841;-83
2023/05/16 08:25:07;;;;;;;7.93;3.15;;;;;;;16.21;67.11;99253.41;7658536;32;37285;-82
2023/05/16 08:29:24;;;;;;;5.65;3.42;;;;;;;16.38;66.64;99267.19;7679568;32;39438;-83
2023/05/16 08:33:40;;;;;;;3.83;3.12;;;;;;;16.47;65.92;99258.94;7683592;32;40795;-84
2023/05/16 08:37:56;;;;;;;6.05;3.92;;;;;;;16.48;65.34;99250.34;7651012;32;38653;-84
2023/05/16 08:42:15;;;;;;;6.45;3.75;;;;;;;16.51;65.68;99237.91;7646933;32;36741;-85
2023/05/16 08:46:34;;;;;;;5.60;3.62;;;;;;;16.40;65.82;99253.94;7650005;32;39490;-85
2023/05/16 08:50:52;;;;;;;23.12;4.07;;;;;;;16.51;65.27;99281.94;7653302;32;38342;-85
2023/05/16 08:55:09;;;;;;;6.70;4.07;;;;;;;16.20;66.76;99246.31;7664707;32;37884;-83
2023/05/16 08:59:27;;;;;;;6.40;4.18;;;;;;;16.48;65.78;99255.84;7661607;32;36076;-85
2023/05/16 09:03:44;;;;;;;6.55;4.35;;;;;;;16.26;67.30;99237.56;7671098;32;39499;-84
2023/05/16 09:08:01;;;;;;;6.85;4.60;;;;;;;16.05;67.44;99231.91;7670522;32;39978;-85
2023/05/16 09:12:18;;;;;;;7.65;4.20;;;;;;;15.99;68.42;99222.19;7684392;32;37733;-86
2023/05/16 09:16:35;;;;;;;7.75;4.25;;;;;;;16.38;67.72;99216.87;7653866;32;37124;-85
2023/05/16 09:20:52;;;;;;;10.35;5.50;;;;;;;16.41;67.66;99203.25;7659829;32;39069;-85
2023/05/16 09:25:15;;;;;;;9.15;4.45;;;;;;;16.46;68.16;99203.09;7678209;32;39882;-85
2023/05/16 09:29:34;;;;;;;6.22;4.32;;;;;;;16.57;68.26;99200.00;7665807;32;37568;-85
2023/05/16 09:33:57;;;;;;;10.10;4.62;;;;;;;16.19;69.59;99203.44;7681083;32;37182;-83
2023/05/16 09:38:16;;;;;;;6.35;4.12;;;;;;;16.65;68.48;99196.44;7658070;32;40060;-83
2023/05/16 09:42:32;;;;;;;5.65;3.40;;;;;;;16.66;68.93;99190.63;7670803;32;38984;-84
2023/05/16 09:46:48;;;;;;;6.90;3.85;;;;;;;17.04;68.37;99189.06;7668284;32;37939;-83
2023/05/16 09:51:06;;;;;;;7.32;4.00;;;;;;;17.18;67.32;99186.13;7666157;32;37296;-86
2023/05/16 09:55:23;;;;;;;7.87;4.10;;;;;;;16.95;67.95;99191.84;7653104;32;40557;-88
2023/05/16 09:59:41;;;;;;;6.75;3.65;;;;;;;17.12;66.49;99190.97;7667467;32;40572;-87
2023/05/16 10:03:58;;;;;;;6.03;3.62;;;;;;;17.03;67.21;99173.69;7668843;32;37916;-86
2023/05/16 10:08:15;;;;;;;6.57;4.00;;;;;;;17.18;66.51;99175.91;7652171;32;37627;-83
2023/05/16 10:12:32;;;;;;;8.75;4.90;;;;;;;17.01;67.60;99168.50;7653689;32;39320;-83
2023/05/16 10:16:48;;;;;;;6.53;4.12;;;;;;;17.05;67.52;99168.66;7660137;32;39930;-83
2023/05/16 10:21:18;;;;;;;6.55;4.40;;;;;;;17.11;67.26;99172.88;7673019;32;38120;-86
2023/05/16 10:25:40;;;;;;;8.13;4.72;;;;;;;16.99;67.28;99157.03;7662622;32;37138;-85
2023/05/16 10:29:57;;;;;;;7.47;4.60;;;;;;;17.06;67.72;99149.06;7667063;32;40167;-85
2023/05/16 10:34:15;;;;;;;11.25;5.28;;;;;;;16.56;69.17;99159.88;7675928;32;40085;-85
2023/05/16 10:38:31;;;;;;;7.15;4.55;;;;;;;16.70;68.71;99153.03;7670779;32;37771;-83
2023/05/16 10:43:02;;;;;;;8.35;5.00;;;;;;;16.56;69.55;99157.94;7646360;32;37875;-84
2023/05/16 10:47:19;;;;;;;9.48;5.50;;;;;;;16.61;69.81;99151.44;7645548;32;40213;-84
2023/05/16 10:51:37;;;;;;;9.38;5.55;;;;;;;17.01;68.87;99152.00;7647380;32;39847;-83
2023/05/16 10:56:00;;;;;;;9.15;5.78;;;;;;;16.88;69.78;99151.09;7674618;32;36915;-85
2023/05/16 11:00:22;;;;;;;13.60;5.83;;;;;;;16.51;71.46;99133.34;7675322;32;37035;-84
2023/05/16 11:04:48;;;;;;;9.38;5.60;;;;;;;16.77;70.43;99127.75;7675150;32;40157;-85
2023/05/16 11:09:10;;;;;;;11.45;5.53;;;;;;;16.48;71.91;99137.56;7676749;32;40735;-85
2023/05/16 11:13:27;;;;;;;10.35;5.78;;;;;;;16.83;70.10;99144.91;7659155;32;37914;-84
2023/05/16 11:17:43;;;;;;;9.82;4.87;;;;;;;17.08;69.84;99121.19;7675310;32;37469;-84
2023/05/16 11:22:28;;;;;;;14.75;7.78;;;;;;;17.22;68.72;99110.75;7682067;32;39051;-85
2023/05/16 11:26:44;;;;;;;11.18;7.45;;;;;;;16.82;70.27;99091.81;7672669;32;40100;-85
2023/05/16 11:31:04;;;;;;;16.35;11.85;;;;;;;16.80;70.82;99085.81;7645351;32;37955;-85
2023/05/16 11:35:20;;;;;;;12.25;8.45;;;;;;;16.94;70.22;99090.34;7658966;32;37984;-85
2023/05/16 11:39:36;;;;;;;15.80;7.93;;;;;;;16.97;70.30;99079.47;7658516;32;39371;-85
2023/05/16 11:43:53;;;;;;;9.52;5.18;;;;;;;17.06;70.58;99060.94;7659070;32;40900;-85
2023/05/16 11:48:09;;;;;;;9.35;5.25;;;;;;;17.19;69.66;99059.06;7663839;32;37534;-84
2023/05/16 11:52:31;;;;;;;9.60;4.53;;;;;;;17.16;70.12;99051.50;7658455;32;37715;-83
2023/05/16 11:56:49;;;;;;;7.90;4.70;;;;;;;17.42;69.42;99061.53;7660293;32;39322;-83
2023/05/16 12:01:06;;;;;;;8.88;4.35;;;;;;;17.36;69.65;99068.38;7658379;32;40509;-82
2023/05/16 12:05:24;;;;;;;7.70;4.47;;;;;;;17.46;70.36;99070.72;7675470;32;37914;-83
2023/05/16 12:09:41;;;;;;;9.43;5.05;;;;;;;17.77;69.65;99055.75;7658038;32;36134;-82
2023/05/16 12:13:58;;;;;;;10.73;5.28;;;;;;;17.90;69.76;99053.84;7660854;32;40250;-84
2023/05/16 12:18:28;;;;;;;7.90;4.70;;;;;;;18.24;69.06;99047.19;7664395;32;39664;-84
2023/05/16 12:22:48;;;;;;;6.62;3.72;;;;;;;18.05;68.89;99047.72;7658400;32;38661;-83
2023/05/16 12:27:07;;;;;;;7.43;3.45;;;;;;;18.39;67.78;99049.28;7667739;32;37890;-83
2023/05/16 12:31:23;;;;;;;8.48;4.00;;;;;;;18.63;67.28;99050.50;7684336;32;39760;-83
2023/05/16 12:35:47;;;;;;;6.50;3.70;;;;;;;18.50;66.76;99070.94;7672618;32;40797;-84
2023/05/16 12:40:05;;;;;;;7.03;3.50;;;;;;;18.35;67.42;99072.38;7664565;32;37779;-88
2023/05/16 12:44:22;;;;;;;5.30;3.45;;;;;;;18.29;67.49;99066.28;7656597;32;37820;-87
2023/05/16 12:48:41;;;;;;;6.07;3.03;;;;;;;18.22;67.48;99059.72;7666292;32;40200;-88
2023/05/16 12:52:59;;;;;;;9.25;3.75;;;;;;;18.48;67.42;99043.69;7657102;32;39899;-88
2023/05/16 12:57:16;;;;;;;7.22;3.03;;;;;;;18.58;67.20;99040.47;7644087;32;36992;-85
2023/05/16 13:01:34;;;;;;;13.45;8.38;;;;;;;18.82;66.65;99024.28;7655776;32;37276;-87
2023/05/16 13:05:51;;;;;;;5.62;3.03;;;;;;;18.74;66.62;99034.28;7676923;32;38503;-85
2023/05/16 13:10:09;;;;;;;6.22;2.95;;;;;;;18.59;66.84;99027.47;7669779;32;39952;-86
2023/05/16 13:14:26;;;;;;;3.87;2.22;;;;;;;18.60;67.63;99029.09;7683312;32;37955;-86
2023/05/16 13:18:42;;;;;;;7.32;2.58;;;;;;;18.92;66.81;99021.06;7684156;32;37830;-85
2023/05/16 13:22:58;;;;;;;4.62;2.67;;;;;;;18.38;67.72;99036.66;7683550;32;40411;-86
2023/05/16 13:27:19;;;;;;;4.70;2.53;;;;;;;18.81;66.04;99028.16;7684025;32;39947;-87
2023/05/16 13:31:36;;;;;;;5.90;3.30;;;;;;;18.59;66.24;99032.97;7683222;32;37904;-87
2023/05/16 13:35:54;;;;;;;6.62;2.78;;;;;;;18.34;66.89;99029.41;7675906;32;37150;-87
2023/05/16 13:40:10;;;;;;;6.00;3.50;;;;;;;18.02;67.34;99027.16;7664937;32;40110;-87
2023/05/16 13:44:27;;;;;;;8.77;3.55;;;;;;;18.65;66.34;99022.53;7682202;32;40104;-88
2023/05/16 13:48:43;;;;;;;8.10;3.67;;;;;;;18.45;67.28;98996.66;7671615;32;37867;-87
2023/05/16 13:53:00;;;;;;;8.85;4.00;;;;;;;18.68;66.74;98983.19;7681812;32;37165;-87
2023/05/16 13:57:16;;;;;;;4.85;3.17;;;;;;;18.33;67.91;98978.94;7683348;32;39344;-87
2023/05/16 14:01:33;;;;;;;7.65;4.60;;;;;;;18.44;67.80;98972.94;7644040;32;40860;-88
2023/05/16 14:05:51;;;;;;;5.32;3.20;;;;;;;18.68;66.62;98966.63;7656489;32;38736;-87
2023/05/16 14:10:08;;;;;;;9.02;3.80;;;;;;;18.87;66.40;98950.31;7671389;32;37459;-87
2023/05/16 14:14:26;;;;;;;7.70;3.50;;;;;;;18.43;67.66;98941.00;7682586;32;40043;-87
2023/05/16 14:18:43;;;;;;;10.57;3.62;;;;;;;18.39;67.70;98938.91;7669554;32;40170;-87
2023/05/16 14:23:00;;;;;;;8.25;4.22;;;;;;;18.35;68.13;98943.53;7682307;32;37984;-87
2023/05/16 14:27:16;;;;;;;6.57;3.78;;;;;;;18.37;67.75;98957.00;7682673;32;37913;-87
2023/05/16 14:31:35;;;;;;;12.43;4.00;;;;;;;18.55;67.14;98941.78;7682059;32;39143;-88
2023/05/16 14:35:55;;;;;;;6.77;3.83;;;;;;;18.66;68.80;98955.94;7682297;32;40703;-88
2023/05/16 14:40:12;;;;;;;8.13;3.87;;;;;;;19.21;66.64;98948.16;7682553;32;37902;-87
2023/05/16 14:44:28;;;;;;;9.35;3.92;;;;;;;19.20;65.66;98949.31;7681907;32;37059;-87
2023/05/16 14:48:46;;;;;;;9.30;4.00;;;;;;;19.30;65.29;98953.56;7679655;32;39111;-87
2023/05/16 14:53:03;;;;;;;9.18;4.28;;;;;;;18.74;67.25;98966.03;7659398;32;39929;-86
2023/05/16 14:57:19;;;;;;;10.15;3.90;;;;;;;19.10;65.67;98967.16;7682064;32;37935;-87
2023/05/16 15:01:36;;;;;;;8.57;4.05;;;;;;;19.00;65.85;98962.13;7681888;32;37914;-87
2023/05/16 15:05:53;;;;;;;13.57;4.40;;;;;;;19.18;65.49;98973.72;7657726;32;40150;-88
2023/05/16 15:10:11;;;;;;;9.73;4.20;;;;;;;19.18;65.07;98961.84;7656593;32;39894;-87
2023/05/16 15:14:28;;;;;;;8.02;3.65;;;;;;;19.20;65.11;98967.84;7685286;32;37641;-87
2023/05/16 15:18:50;;;;;;;10.57;3.80;;;;;;;19.28;65.47;98961.38;7679431;32;37127;-87
2023/05/16 15:23:07;;;;;;;8.73;3.70;;;;;;;19.22;65.70;98951.72;7658989;32;39292;-88
2023/05/16 15:27:24;;;;;;;9.55;4.15;;;;;;;19.26;64.92;98947.09;7658832;32;40805;-88
2023/05/16 15:31:41;;;;;;;9.80;4.30;;;;;;;19.23;64.98;98950.56;7658604;32;38672;-86
2023/05/16 15:35:57;;;;;;;12.23;4.53;;;;;;;19.13;65.68;98954.63;7659412;32;37415;-87
2023/05/16 15:40:14;;;;;;;7.78;4.28;;;;;;;19.06;65.66;98955.22;7659398;32;40123;-86
2023/05/16 15:44:31;;;;;;;14.93;5.28;;;;;;;19.07;65.80;98959.56;7645635;32;40902;-88
2023/05/16 15:48:47;;;;;;;8.90;5.10;;;;;;;18.87;66.43;98957.81;7662188;32;38420;-87
2023/05/16 15:53:03;;;;;;;9.15;4.90;;;;;;;18.86;66.54;98958.94;7681189;32;37172;-87
2023/05/16 15:57:20;;;;;;;19.10;5.53;;;;;;;18.72;66.68;98957.31;7683273;32;39307;-87
2023/05/16 16:01:36;;;;;;;9.57;4.87;;;;;;;18.76;66.74;98941.69;7673227;32;39987;-87
2023/05/16 16:05:53;;;;;;;11.57;5.37;;;;;;;18.77;66.81;98954.31;7664461;32;38085;-86
2023/05/16 16:10:11;;;;;;;13.02;5.93;;;;;;;18.75;66.50;98951.09;7672348;32;37681;-88
2023/05/16 16:14:28;;;;;;;8.57;4.93;;;;;;;18.72;66.84;98951.78;7658523;32;38383;-88
2023/05/16 16:18:44;;;;;;;11.12;4.95;;;;;;;18.82;66.20;98933.16;7660240;32;40207;-87
2023/05/16 16:23:01;;;;;;;11.80;5.22;;;;;;;18.68;66.86;98923.28;7668678;32;38688;-87
2023/05/16 16:27:30;;;;;;;10.25;5.28;;;;;;;18.47;67.47;98919.81;7668500;32;37280;-87
2023/05/16 16:31:49;;;;;;;8.85;4.85;;;;;;;18.46;67.07;98927.31;7664730;32;40214;-86
2023/05/16 16:36:16;;;;;;;9.27;5.45;;;;;;;18.00;68.19;98932.91;7666730;32;39706;-86
2023/05/16 16:40:36;;;;;;;11.48;5.75;;;;;;;18.04;68.16;98943.25;7666087;32;38679;-86
2023/05/16 16:44:53;;;;;;;10.00;6.00;;;;;;;18.08;67.85;98941.44;7665189;32;37192;-86
2023/05/16 16:49:09;;;;;;;10.45;6.05;;;;;;;18.13;67.94;98939.25;7666688;32;39810;-85
2023/05/16 16:53:25;;;;;;;15.60;5.93;;;;;;;18.12;67.95;98945.09;7662670;32;40457;-87
2023/05/16 16:57:42;;;;;;;11.27;5.60;;;;;;;18.12;68.36;98945.09;7658215;32;38691;-87
2023/05/16 17:01:58;;;;;;;10.77;5.28;;;;;;;18.02;68.68;98955.44;7659979;32;37385;-87
2023/05/16 17:06:15;;;;;;;9.23;5.28;;;;;;;17.98;68.90;98957.25;7668458;32;37833;-86
2023/05/16 17:10:31;;;;;;;10.38;5.93;;;;;;;18.09;68.59;98946.63;7668757;32;40938;-82
2023/05/16 17:14:50;;;;;;;8.20;5.70;;;;;;;18.11;68.48;98943.50;7684186;32;38643;-84
2023/05/16 17:19:07;;;;;;;8.55;5.20;;;;;;;18.02;68.36;98935.31;7668286;32;37906;-84
2023/05/16 17:23:23;;;;;;;10.63;6.07;;;;;;;18.04;68.11;98943.25;7683020;32;39818;-84
2023/05/16 17:27:40;;;;;;;10.60;6.25;;;;;;;17.64;69.23;98950.97;7680048;32;40006;-86
2023/05/16 17:31:56;;;;;;;10.48;5.50;;;;;;;17.72;69.25;98953.97;7680844;32;38687;-85
2023/05/16 17:36:13;;;;;;;9.00;5.47;;;;;;;17.82;68.34;98948.03;7662005;32;37128;-84
2023/05/16 17:40:31;;;;;;;9.98;5.68;;;;;;;17.79;68.71;98943.19;7681532;32;39912;-87
2023/05/16 17:44:52;;;;;;;9.13;5.22;;;;;;;17.51;70.03;98943.78;7681477;32;40622;-83
2023/05/16 17:49:16;;;;;;;7.97;5.00;;;;;;;17.61;69.30;98945.31;7668246;32;38752;-85
2023/05/16 17:53:36;;;;;;;9.07;5.05;;;;;;;17.20;70.64;98939.50;7683331;32;37919;-85
2023/05/16 17:57:53;;;;;;;7.20;4.65;;;;;;;17.22;70.70;98947.44;7678714;32;39600;-83
2023/05/16 18:02:13;;;;;;;7.93;4.50;;;;;;;16.77;71.90;98934.31;7656848;32;39676;-85
2023/05/16 18:06:30;;;;;;;7.87;5.03;;;;;;;17.14;70.67;98935.34;7660322;32;38665;-85
2023/05/16 18:10:47;;;;;;;7.60;4.47;;;;;;;17.41;69.64;98933.97;7682026;32;37189;-86
2023/05/16 18:15:09;;;;;;;9.65;4.95;;;;;;;17.35;69.91;98929.00;7669806;32;40054;-82
2023/05/16 18:19:25;;;;;;;10.50;5.22;;;;;;;17.21;70.57;98943.06;7654829;32;39156;-85
2023/05/16 18:23:42;;;;;;;10.27;5.53;;;;;;;17.24;70.25;98951.44;7642987;32;38654;-84
2023/05/16 18:27:58;;;;;;;8.07;4.55;;;;;;;17.17;70.68;98947.66;7672581;32;37472;-84
2023/05/16 18:32:15;;;;;;;11.60;5.50;;;;;;;17.36;70.08;98958.97;7682984;32;39393;-86
2023/05/16 18:36:31;;;;;;;7.80;4.85;;;;;;;17.44;69.76;98962.81;7661596;32;39744;-84
2023/05/16 18:40:49;;;;;;;9.63;4.78;;;;;;;17.39;69.68;98952.81;7658782;32;38037;-85
2023/05/16 18:45:06;;;;;;;10.43;4.68;;;;;;;17.44;69.73;98949.03;7660005;32;36792;-84
2023/05/16 18:49:22;;;;;;;11.27;4.97;;;;;;;17.43;69.61;98948.22;7684291;32;40088;-84
2023/05/16 18:53:39;;;;;;;8.70;5.15;;;;;;;17.26;70.11;98957.47;7686145;32;40967;-84
2023/05/16 18:57:56;;;;;;;9.57;5.50;;;;;;;17.21;70.14;98940.31;7670443;32;38408;-85
2023/05/16 19:02:12;;;;;;;9.43;5.30;;;;;;;17.12;70.74;98942.34;7659792;32;37154;-84
2023/05/16 19:06:29;;;;;;;9.35;4.93;;;;;;;17.25;70.02;98936.56;7660453;32;39043;-84
2023/05/16 19:10:45;;;;;;;11.70;5.20;;;;;;;17.19;70.33;98940.63;7659424;32;40660;-84
2023/05/16 19:15:02;;;;;;;9.30;4.93;;;;;;;17.04;70.48;98936.56;7659425;32;38006;-84
2023/05/16 19:19:18;;;;;;;10.32;4.60;;;;;;;17.08;70.31;98939.44;7659536;32;37057;-83
2023/05/16 19:23:35;;;;;;;8.73;4.43;;;;;;;17.09;70.35;98938.28;7659504;32;39569;-83
2023/05/16 19:27:52;;;;;;;7.60;4.65;;;;;;;16.94;71.20;98963.69;7676702;32;40976;-83
2023/05/16 19:32:09;;;;;;;12.57;5.07;;;;;;;16.93;71.21;98962.06;7685658;32;38602;-83
2023/05/16 19:36:26;;;;;;;9.82;5.15;;;;;;;17.14;70.51;98956.56;7676811;32;37945;-83
2023/05/16 19:40:43;;;;;;;10.23;5.35;;;;;;;17.22;69.95;98959.25;7659262;32;40097;-82
2023/05/16 19:44:59;;;;;;;8.93;4.97;;;;;;;17.39;69.35;98957.50;7659251;32;40843;-84
2023/05/16 19:49:16;;;;;;;9.65;4.95;;;;;;;17.39;69.18;98957.50;7684446;32;38072;-84
2023/05/16 19:53:35;;;;;;;11.70;5.18;;;;;;;17.49;68.80;98951.59;7685597;32;37455;-83
2023/05/16 19:57:51;;;;;;;10.68;5.50;;;;;;;17.41;69.07;98950.50;7668468;32;39013;-85
2023/05/16 20:02:08;;;;;;;10.93;5.43;;;;;;;17.59;68.61;98950.34;7661247;32;40843;-86
2023/05/16 20:06:24;;;;;;;12.95;5.50;;;;;;;17.67;68.32;98956.94;7672350;32;37838;-85
2023/05/16 20:10:41;;;;;;;9.52;5.65;;;;;;;17.52;68.51;98950.09;7669993;32;37217;-81